Yamaguchi Ube Airport
RJDC : now visible

Airfield :











YOU CAN JOIN US ON...

 
LOGIN :

Register | Disclaimer

   EN    FR    IT 

 









Legend :    VFR   Marginal VFR   IFR   Intensive IFR   Very Intensive IFR
Visi :
Ceiling :
>= 8 km
>= 3000ft
5 to 8 km
1000 to 3000 ft
1500m to 5 km
500 to 1000 ft
800 to 1500m
200 to 500 ft
< 800m
< 200 ft
Symbols :   Thunderstorms  Fog  Heavy snow  Heavy precipitations  Wind > 20 kt






- Airport Elevation : 23 ft
- IATA code : UBJ


RJDC - Yamaguchi Ube

CURRENT METAR :
  • 290400Z 21011KT 9999 FEW030 22/14 Q1013

EXPIRED METARs :
  • 290300Z 20010KT 9999 FEW030 22/13 Q1013
  • 290200Z 23010KT 9999 FEW030 21/13 Q1013
  • 290100Z 23008KT 9999 FEW025 20/12 Q1013
  • 290000Z 20005KT 170V240 9999 FEW025 20/12 Q1013

TAF N/A
RJJJ FIR / Asia



MET'MAP, your aeronautical weather chart ! - Copyright ORBIFLY December 2007 - Disclaimer

ORBIFLY MET'MAP TEAM :

Programming & Development : Alexandra Zaïnal
Original concept : Baudouin d'Aumeries
Technical & hardware support : Manuel Goepfert
Assistance : Marc-Olivier Méhu




SOURCES & CREDITS :

   NOAA       Earth
Advisory